2nd June 2019 | Cork, Co Cork, Ireland

Irish Examiner Cork City Marathon (2019)

Relay: Mixed Mixed

Pos Name Team Name Gun Time Overall Pos Gender (Pos)
1 The Mixed Race (#6571) 02:39:21 7 Mixed  (1)
2 Cork Track Club (#6541) TOGHER AC 02:50:24 8 Mixed  (2)
3 Running Out Of Time (#6576) MIDLETON AC 02:55:00 11 Mixed  (3)
4 Tim-Joe Time (#6284) DONOUGHMORE AC 02:57:03 12 Mixed  (4)
5 Mafia Runners (#6549) 03:11:19 17 Mixed  (5)
6 Clayton Hotel Silver Springs Relay 3 (#6599) 03:14:43 22 Mixed  (7)
7 Goldielocks And The Four Bears (#6604) WEST MUSKERRY AC 03:15:47 25 Mixed  (8)
8 Eagle Ac (#6221) EAGLE AC 03:17:20 27 Mixed  (9)
9 Cobh Tr 6 (#6646) 03:17:38 28 Mixed  (10)
10 Train With Trevor (#6411) BALLYMORE COBH AC 03:20:28 34 Mixed  (11)
11 Brinny 10 (#6154) N/A 03:21:40 35 Mixed  (12)
12 Return Of The Macs (#6390) 03:22:24 38 Mixed  (13)
13 Accuscience Tortoises (#6622) NONE 03:26:59 41 Mixed  (14)
14 Team Ca-Vanagh (#6494) N/A 03:27:12 43 Mixed  (15)
15 Dccd19 (#6240) N/A 03:27:21 44 Mixed  (16)
16 Amazon Cadence Counters (#6260) 03:27:51 45 Mixed  (17)
17 The Bons Babes (#6034) 03:27:53 46 Mixed  (18)
18 Maldron Shandon Super Stars (#6121) 03:29:27 49 Mixed  (19)
19 Oæloughlin (#6493) ST FINBARR'S AC 03:29:40 51 Mixed  (20)
20 Seans Angels. (#6170) MALLOW AC 03:30:08 54 Mixed  (21)
21 Happy Feet (#6624) 03:30:30 55 Mixed  (22)
22 Hamstring Heroæs (#6454) 03:34:10 61 Mixed  (23)
23 Mercer (#6218) 03:34:31 62 Mixed  (24)
24 Leevale Mixed (#6551) 03:36:00 66 Mixed  (25)
25 Del La Salle Macroom (#6201) 03:36:16 67 Mixed  (26)
26 Stockydinan (#6263) ST FINBARR'S AC 03:36:29 69 Mixed  (27)
27 Big Toe Blisters (#6262) DONOUGHMORE AC 03:37:01 71 Mixed  (28)
28 We Are The Famous Five (#6044) MALLOW AC 03:37:32 72 Mixed  (29)
29 Ronan Daly Jermyn 4 (#6086) 03:37:40 73 Mixed  (30)
30 The 4 Wise Monkeys + 1 (#6294) 03:37:58 74 Mixed  (31)
31 By The Beard Of Zeus (#6058) 03:38:06 75 Mixed  (32)
32 Just Run Fast (#6238) NONE 03:38:47 80 Mixed  (33)
33 Sanctuary Runners Team 24 (#6499) SANCTUARY RUNNERS 03:39:00 81 Mixed  (34)
34 A+fitness Group 9 (#6452) 03:39:11 82 Mixed  (35)
35 Team Wexico (#6490) 03:39:12 83 Mixed  (36)
36 Jcd Group (#6387) NONE 03:39:55 85 Mixed  (37)
37 Watergrasshill Dream Team (#6574) WATERGRASSHILL AC 03:40:05 86 Mixed  (38)
38 Arup Cork (#6208) 03:40:15 88 Mixed  (39)
39 Itw (#6509) 03:40:22 89 Mixed  (40)
40 Chasing Christy! (#6385) CARRAIG NA BHFEAR AC 03:40:35 90 Mixed  (41)
41 Beara Ac Team B (#6173) 03:40:50 91 Mixed  (42)
42 Ayrton Group (#6009) 03:41:09 93 Mixed  (43)
43 Charlies Angels (#6338) 03:41:21 94 Mixed  (44)
44 Gc's (#6164) 03:41:46 95 Mixed  (45)
45 Pacemakers (#6441) 03:42:00 96 Mixed  (46)
46 Cobh Tri 3 (#6084) 03:42:24 98 Mixed  (47)
47 Vicarstown Ns (#6255) 03:42:55 99 Mixed  (48)
48 Dave's Angels (#6484) 03:43:06 100 Mixed  (49)
49 Run Rabbit Run (#6215) 03:43:49 102 Mixed  (50)
50 O'sullivans - Woodlands (#6289) WIBBLY WOBBLY WONDERS 03:44:13 104 Mixed  (51)